Time;durP1;ratioP1;P1;durP2;ratioP2;P2;SDS_P1;SDS_P2;PMS_P1;PMS_P2;Temp;Humidity;BMP_temperature;BMP_pressure;BME280_temperature;BME280_humidity;BME280_pressure;Samples;Min_cycle;Max_cycle;Signal;HPM_P1;HPM_P2
2022/06/09 00:01:27;;;;;;;3.10;2.03;;;17.60;99.90;;;;;;5083434;28;20043;-81
2022/06/09 00:04:18;;;;;;;2.83;1.88;;;17.70;99.90;;;;;;5073754;28;20034;-81
2022/06/09 00:06:51;;;;;;;1.73;1.50;;;17.70;99.90;;;;;;5075349;28;20664;-80
2022/06/09 00:09:19;;;;;;;5.53;2.63;;;17.70;99.90;;;;;;5082803;28;20029;-81
2022/06/09 00:11:49;;;;;;;2.15;1.60;;;17.80;99.90;;;;;;5084063;28;20028;-79
2022/06/09 00:14:15;;;;;;;2.83;1.65;;;17.80;99.90;;;;;;5088391;28;20032;-80
2022/06/09 00:16:41;;;;;;;4.50;1.88;;;17.90;99.90;;;;;;5083852;28;20099;-80
2022/06/09 00:19:07;;;;;;;2.28;1.40;;;17.90;99.90;;;;;;5083100;28;20060;-80
2022/06/09 00:21:34;;;;;;;1.90;1.65;;;18.00;99.90;;;;;;5075796;28;20048;-82
2022/06/09 00:24:01;;;;;;;1.98;1.42;;;18.10;99.90;;;;;;5087974;28;20178;-79
2022/06/09 00:26:27;;;;;;;1.52;1.42;;;18.20;99.90;;;;;;5089176;28;20024;-80
2022/06/09 00:28:53;;;;;;;1.90;1.50;;;18.30;99.90;;;;;;5085154;28;20016;-80
2022/06/09 00:31:20;;;;;;;3.13;1.80;;;18.40;99.90;;;;;;5089390;28;20028;-80
2022/06/09 00:33:46;;;;;;;2.45;1.65;;;18.50;99.90;;;;;;5086917;28;20028;-80
2022/06/09 00:36:11;;;;;;;7.43;1.70;;;18.60;99.90;;;;;;5072172;28;20562;-80
2022/06/09 00:38:37;;;;;;;2.05;1.73;;;18.60;99.90;;;;;;5086165;28;20019;-81
2022/06/09 00:41:02;;;;;;;2.08;1.73;;;18.60;99.90;;;;;;5088825;28;20115;-80
2022/06/09 00:43:30;;;;;;;2.17;1.75;;;18.60;99.90;;;;;;5078815;28;20028;-81
2022/06/09 00:46:05;;;;;;;3.00;2.20;;;18.70;99.90;;;;;;5085442;28;20485;-80
2022/06/09 00:48:42;;;;;;;1.30;1.20;;;18.70;99.90;;;;;;5077863;28;20069;-80
2022/06/09 00:51:19;;;;;;;2.95;1.83;;;18.70;99.90;;;;;;5087528;28;20035;-80
2022/06/09 00:53:46;;;;;;;3.08;2.05;;;18.80;99.90;;;;;;5087739;28;20052;-80
2022/06/09 00:56:13;;;;;;;2.00;1.40;;;18.80;99.90;;;;;;5089261;28;20105;-80
2022/06/09 00:58:42;;;;;;;1.20;1.10;;;18.80;99.90;;;;;;5089092;28;20024;-80
2022/06/09 01:01:12;;;;;;;1.48;1.27;;;18.80;99.90;;;;;;5086410;28;20024;-80
2022/06/09 01:03:47;;;;;;;1.37;1.27;;;18.80;99.90;;;;;;5089052;28;20032;-81
2022/06/09 01:06:17;;;;;;;2.20;1.30;;;18.80;99.90;;;;;;5085755;28;20114;-79
2022/06/09 01:08:50;;;;;;;2.67;1.23;;;18.80;99.90;;;;;;5080193;28;20111;-80
2022/06/09 01:11:15;;;;;;;2.38;1.40;;;18.70;99.90;;;;;;5085571;28;20032;-79
2022/06/09 01:13:42;;;;;;;1.13;1.02;;;18.70;99.90;;;;;;5075860;28;20040;-79
2022/06/09 01:16:32;;;;;;;1.05;0.95;;;18.70;99.90;;;;;;5079250;28;20032;-80
2022/06/09 01:19:41;;;;;;;1.08;0.98;;;18.70;99.90;;;;;;5083232;28;20044;-79
2022/06/09 01:22:33;;;;;;;1.42;1.20;;;18.60;99.90;;;;;;5079334;28;20032;-80
2022/06/09 01:25:27;;;;;;;1.95;1.10;;;18.60;99.90;;;;;;5088481;28;20074;-81
2022/06/09 01:28:11;;;;;;;2.78;1.20;;;18.60;99.90;;;;;;5074719;28;20024;-80
2022/06/09 01:30:50;;;;;;;1.67;1.17;;;18.50;99.90;;;;;;5082189;28;20051;-79
2022/06/09 01:33:33;;;;;;;1.33;0.95;;;18.50;99.90;;;;;;5087038;28;20044;-82
2022/06/09 01:36:12;;;;;;;2.50;1.45;;;18.50;99.90;;;;;;5087898;28;20024;-79
2022/06/09 01:38:49;;;;;;;0.88;0.88;;;18.50;99.90;;;;;;5081085;28;20028;-80
2022/06/09 01:41:15;;;;;;;1.05;0.90;;;18.40;99.90;;;;;;5082632;28;20072;-81
2022/06/09 01:43:43;;;;;;;1.17;1.08;;;18.30;99.90;;;;;;5087738;28;20039;-81
2022/06/09 01:46:19;;;;;;;1.55;1.10;;;18.30;99.90;;;;;;5084808;28;20040;-81
2022/06/09 01:48:46;;;;;;;1.60;1.35;;;18.40;99.90;;;;;;5078041;28;20036;-80
2022/06/09 01:51:15;;;;;;;1.13;0.85;;;18.30;99.90;;;;;;5076356;28;20031;-79
2022/06/09 01:54:15;;;;;;;1.63;1.42;;;18.30;99.90;;;;;;5082661;28;20134;-79
2022/06/09 01:56:49;;;;;;;0.88;0.88;;;18.20;99.90;;;;;;5074885;28;20043;-81
2022/06/09 01:59:27;;;;;;;1.02;0.90;;;18.20;99.90;;;;;;5072255;28;20059;-80
2022/06/09 02:02:26;;;;;;;1.02;0.60;;;18.10;99.90;;;;;;5088352;28;20116;-80
2022/06/09 02:04:57;;;;;;;1.05;0.95;;;18.10;99.90;;;;;;5064433;28;20041;-80
2022/06/09 02:07:26;;;;;;;1.73;1.63;;;18.10;99.90;;;;;;5088850;28;20170;-79
2022/06/09 02:09:53;;;;;;;1.52;0.88;;;18.10;99.90;;;;;;5091222;28;20250;-81
2022/06/09 02:12:23;;;;;;;1.25;0.80;;;18.10;99.90;;;;;;5080567;28;20142;-80
2022/06/09 02:14:52;;;;;;;1.02;0.93;;;18.10;99.90;;;;;;5075324;28;20032;-81
2022/06/09 02:17:18;;;;;;;1.63;1.00;;;18.10;99.90;;;;;;5081609;28;20115;-79
2022/06/09 02:19:46;;;;;;;1.40;1.30;;;18.10;99.90;;;;;;5092376;28;20475;-81
2022/06/09 02:22:13;;;;;;;1.00;0.90;;;18.10;99.90;;;;;;5088868;28;20032;-80
2022/06/09 02:24:39;;;;;;;1.40;1.13;;;18.10;99.90;;;;;;5092271;28;20466;-80
2022/06/09 02:27:05;;;;;;;1.90;1.13;;;18.10;99.90;;;;;;5084486;28;20031;-80
2022/06/09 02:29:32;;;;;;;0.80;0.80;;;18.10;99.90;;;;;;5078245;28;20098;-81
2022/06/09 02:31:57;;;;;;;1.02;0.93;;;18.00;99.90;;;;;;5090769;28;20032;-80
2022/06/09 02:34:23;;;;;;;1.30;1.15;;;18.00;99.90;;;;;;5066745;28;20032;-81
2022/06/09 02:36:48;;;;;;;1.70;1.08;;;18.00;99.90;;;;;;5092389;28;20035;-80
2022/06/09 02:39:14;;;;;;;2.22;0.90;;;17.90;99.90;;;;;;5091474;28;20051;-81
2022/06/09 02:41:39;;;;;;;3.30;1.00;;;17.80;99.90;;;;;;5087247;28;20020;-79
2022/06/09 02:44:05;;;;;;;1.27;0.90;;;17.80;99.90;;;;;;5089233;28;20027;-82
2022/06/09 02:46:31;;;;;;;1.17;1.00;;;17.80;99.90;;;;;;5087557;28;20077;-80
2022/06/09 02:48:57;;;;;;;1.42;0.90;;;17.70;99.90;;;;;;5091659;28;20387;-81
2022/06/09 02:51:27;;;;;;;0.95;0.85;;;17.70;99.90;;;;;;5076652;28;20042;-80
2022/06/09 02:53:57;;;;;;;2.47;0.70;;;17.70;99.90;;;;;;5067389;28;20079;-80
2022/06/09 02:56:23;;;;;;;1.05;1.00;;;17.60;99.90;;;;;;5058930;28;20028;-80
2022/06/09 02:58:49;;;;;;;0.55;0.55;;;17.60;99.90;;;;;;5050014;28;20032;-80
2022/06/09 03:01:14;;;;;;;0.82;0.70;;;17.60;99.90;;;;;;5064618;28;20046;-80
2022/06/09 03:03:40;;;;;;;0.95;0.68;;;17.50;99.90;;;;;;5056780;28;20028;-79
2022/06/09 03:06:06;;;;;;;0.75;0.75;;;17.50;99.90;;;;;;5070298;28;20024;-80
2022/06/09 03:08:32;;;;;;;0.90;0.80;;;17.40;99.90;;;;;;5057634;28;20049;-80
2022/06/09 03:10:58;;;;;;;1.00;0.90;;;17.40;99.90;;;;;;5052605;28;20024;-80
2022/06/09 03:13:23;;;;;;;1.67;0.93;;;17.40;99.90;;;;;;5051298;28;20316;-81
2022/06/09 03:15:50;;;;;;;1.25;0.90;;;17.40;99.90;;;;;;5061165;28;20404;-80
2022/06/09 03:18:24;;;;;;;0.85;0.65;;;17.40;99.90;;;;;;5065808;28;20165;-80
2022/06/09 03:20:50;;;;;;;0.65;0.65;;;17.30;99.90;;;;;;5060818;28;20094;-80
2022/06/09 03:23:15;;;;;;;0.88;0.88;;;17.30;99.90;;;;;;5055843;28;20025;-80
2022/06/09 03:25:44;;;;;;;1.20;1.10;;;17.20;99.90;;;;;;5065622;28;20644;-81
2022/06/09 03:28:11;;;;;;;0.98;0.70;;;17.20;99.90;;;;;;5071037;28;20207;-80
2022/06/09 03:30:36;;;;;;;1.30;0.77;;;17.20;99.90;;;;;;5065708;28;20065;-79
2022/06/09 03:33:02;;;;;;;0.82;0.80;;;17.20;99.90;;;;;;5060284;28;20063;-79
2022/06/09 03:35:29;;;;;;;0.75;0.75;;;17.20;99.90;;;;;;5063319;28;20032;-80
2022/06/09 03:37:56;;;;;;;0.70;0.70;;;17.20;99.90;;;;;;5070222;28;20028;-79
2022/06/09 03:40:23;;;;;;;1.15;0.98;;;17.20;99.90;;;;;;5070344;28;20075;-80
2022/06/09 03:42:49;;;;;;;0.98;0.90;;;17.20;99.90;;;;;;5070666;28;20032;-80
2022/06/09 03:45:15;;;;;;;2.90;1.17;;;17.20;99.90;;;;;;5063861;28;20121;-79
2022/06/09 03:47:40;;;;;;;0.70;0.70;;;17.20;99.90;;;;;;5067558;28;20431;-80
2022/06/09 03:50:08;;;;;;;0.93;0.90;;;17.20;99.90;;;;;;5061008;28;20056;-80
2022/06/09 03:52:34;;;;;;;0.90;0.90;;;17.20;99.90;;;;;;5063532;28;20079;-80
2022/06/09 03:54:59;;;;;;;0.65;0.65;;;17.20;99.90;;;;;;5080761;28;20043;-81
2022/06/09 03:57:25;;;;;;;0.95;0.90;;;17.10;99.90;;;;;;5081789;28;20608;-80
2022/06/09 03:59:51;;;;;;;0.82;0.75;;;17.10;99.90;;;;;;5082995;28;20531;-82
2022/06/09 04:02:16;;;;;;;0.65;0.65;;;17.10;99.90;;;;;;5084737;28;20051;-80
2022/06/09 04:04:42;;;;;;;1.52;0.93;;;17.10;99.90;;;;;;5082525;28;20036;-80
2022/06/09 04:07:09;;;;;;;1.20;1.10;;;17.10;99.90;;;;;;5083418;28;20108;-81
2022/06/09 04:09:34;;;;;;;0.80;0.80;;;17.10;99.90;;;;;;5087001;28;20020;-81
2022/06/09 04:12:00;;;;;;;1.05;0.95;;;17.10;99.90;;;;;;5088748;28;20030;-80
2022/06/09 04:14:25;;;;;;;2.13;1.15;;;17.10;99.90;;;;;;5083541;28;20077;-80
2022/06/09 04:16:55;;;;;;;1.65;0.98;;;17.20;99.90;;;;;;5087906;28;20023;-81
2022/06/09 04:19:22;;;;;;;1.05;0.95;;;17.20;99.90;;;;;;5084671;28;20085;-80
2022/06/09 04:21:48;;;;;;;0.82;0.73;;;17.20;99.90;;;;;;5085236;28;20038;-80
2022/06/09 04:24:16;;;;;;;1.92;1.00;;;17.10;99.90;;;;;;5083311;28;20112;-80
2022/06/09 04:26:42;;;;;;;0.70;0.70;;;17.20;99.90;;;;;;5084925;28;20031;-80
2022/06/09 04:29:11;;;;;;;1.15;0.80;;;17.30;99.90;;;;;;5085695;28;20024;-80
2022/06/09 04:31:37;;;;;;;1.73;1.10;;;17.30;99.90;;;;;;5088045;28;20504;-80
2022/06/09 04:34:02;;;;;;;1.23;0.98;;;17.30;99.90;;;;;;5088635;28;20032;-79
2022/06/09 04:36:28;;;;;;;0.75;0.75;;;17.40;99.90;;;;;;5085922;28;20024;-79
2022/06/09 04:38:54;;;;;;;0.82;0.70;;;17.40;99.90;;;;;;5089437;28;20076;-80
2022/06/09 04:41:19;;;;;;;1.08;0.60;;;17.40;99.90;;;;;;5080922;28;20103;-79
2022/06/09 04:43:46;;;;;;;0.68;0.68;;;17.40;99.90;;;;;;5084245;28;20032;-78
2022/06/09 04:46:22;;;;;;;0.93;0.70;;;17.40;99.90;;;;;;5085706;28;20226;-79
2022/06/09 04:48:47;;;;;;;1.13;0.90;;;17.50;99.90;;;;;;5088130;28;20028;-78
2022/06/09 04:51:16;;;;;;;0.70;0.50;;;17.50;99.90;;;;;;5081391;28;20160;-78
2022/06/09 04:53:42;;;;;;;1.05;0.88;;;17.60;99.90;;;;;;5083720;28;20044;-80
2022/06/09 04:56:09;;;;;;;0.90;0.75;;;17.60;99.90;;;;;;5088088;28;20024;-78
2022/06/09 04:58:38;;;;;;;12.50;1.50;;;17.70;99.90;;;;;;5088658;28;20020;-79
2022/06/09 05:01:04;;;;;;;0.93;0.70;;;17.80;99.90;;;;;;5083669;28;20028;-80
2022/06/09 05:03:32;;;;;;;4.10;0.90;;;17.90;99.90;;;;;;5084514;28;20106;-79
2022/06/09 05:05:58;;;;;;;1.55;0.65;;;18.10;99.90;;;;;;5081169;28;20024;-80
2022/06/09 05:08:23;;;;;;;1.88;0.88;;;18.30;99.90;;;;;;5083606;28;20028;-78
2022/06/09 05:10:49;;;;;;;0.63;0.63;;;18.50;99.90;;;;;;5087353;28;20025;-77
2022/06/09 05:13:15;;;;;;;0.60;0.60;;;18.50;99.90;;;;;;5084118;28;20458;-80
2022/06/09 05:15:55;;;;;;;3.25;0.90;;;18.60;99.90;;;;;;5082510;28;20024;-80
2022/06/09 05:18:26;;;;;;;1.20;0.60;;;18.70;99.90;;;;;;5081186;28;20686;-80
2022/06/09 05:20:53;;;;;;;1.52;0.70;;;18.70;99.90;;;;;;5090007;28;20155;-81
2022/06/09 05:23:19;;;;;;;1.02;0.77;;;18.60;99.90;;;;;;5078283;28;20496;-81
2022/06/09 05:25:45;;;;;;;0.70;0.70;;;18.60;99.90;;;;;;5077181;28;20027;-79
2022/06/09 05:28:11;;;;;;;0.70;0.70;;;18.60;99.90;;;;;;5088933;28;20036;-83
2022/06/09 05:30:37;;;;;;;0.70;0.60;;;18.70;99.90;;;;;;5083555;28;20029;-84
2022/06/09 05:33:02;;;;;;;0.80;0.57;;;18.70;99.90;;;;;;5084744;28;20024;-82
2022/06/09 05:35:29;;;;;;;1.02;0.60;;;18.80;99.90;;;;;;5082217;28;20033;-82
2022/06/09 05:46:29;;;;;;;0.70;0.70;;;18.80;99.90;;;;;;5088600;28;20051;-82
2022/06/09 05:48:54;;;;;;;0.60;0.60;;;18.90;99.90;;;;;;5087120;28;20027;-84
2022/06/09 05:51:20;;;;;;;0.65;0.65;;;18.80;99.90;;;;;;5085565;28;20020;-81
2022/06/09 05:53:46;;;;;;;0.55;0.52;;;18.80;99.90;;;;;;5086037;28;20048;-79
2022/06/09 05:56:12;;;;;;;1.35;0.52;;;18.90;99.90;;;;;;5058663;28;20051;-81
2022/06/09 05:58:37;;;;;;;1.00;0.70;;;18.90;99.90;;;;;;5077821;28;20024;-78
2022/06/09 06:01:08;;;;;;;1.40;0.70;;;19.00;99.90;;;;;;5057072;28;20037;-79
2022/06/09 06:03:35;;;;;;;0.77;0.60;;;19.00;99.90;;;;;;5062980;28;20047;-78
2022/06/09 06:08:45;;;;;;;1.45;0.40;;;18.80;99.90;;;;;;5069205;28;20082;-75
2022/06/09 06:11:11;;;;;;;1.33;0.50;;;18.90;99.90;;;;;;5059160;28;20033;-80
2022/06/09 06:13:36;;;;;;;3.60;0.40;;;19.00;99.90;;;;;;5068692;28;20028;-76
2022/06/09 06:16:02;;;;;;;0.55;0.55;;;19.10;99.90;;;;;;5074431;28;20027;-76
2022/06/09 06:18:28;;;;;;;0.38;0.38;;;19.10;99.90;;;;;;5073022;28;20036;-76
2022/06/09 06:20:55;;;;;;;2.53;0.80;;;19.20;99.90;;;;;;5057331;28;20110;-77
2022/06/09 06:23:22;;;;;;;0.28;0.28;;;19.10;99.90;;;;;;5065600;28;20028;-76
2022/06/09 06:25:47;;;;;;;0.55;0.43;;;19.20;99.90;;;;;;5073682;28;20036;-77
2022/06/09 06:28:12;;;;;;;5.32;0.82;;;19.30;99.90;;;;;;5068926;28;20448;-77
2022/06/09 06:30:38;;;;;;;0.90;0.88;;;19.50;99.90;;;;;;5064402;28;20025;-78
2022/06/09 06:33:03;;;;;;;0.30;0.30;;;19.40;99.90;;;;;;5067602;28;20024;-76
2022/06/09 06:35:29;;;;;;;2.45;0.50;;;19.30;99.90;;;;;;5067543;28;20035;-76
2022/06/09 06:37:54;;;;;;;0.30;0.30;;;19.40;99.90;;;;;;5065908;28;20032;-79
2022/06/09 06:40:20;;;;;;;1.48;1.00;;;19.50;99.90;;;;;;5068279;28;20135;-82
2022/06/09 06:42:46;;;;;;;0.38;0.38;;;19.70;99.90;;;;;;5067418;28;20025;-76
2022/06/09 06:45:13;;;;;;;2.05;0.80;;;19.60;99.90;;;;;;5061550;28;20071;-76
2022/06/09 06:47:39;;;;;;;2.88;0.80;;;19.60;99.90;;;;;;5070583;28;20024;-77
2022/06/09 06:50:06;;;;;;;0.70;0.70;;;19.60;99.90;;;;;;5066422;28;20717;-75
2022/06/09 06:52:31;;;;;;;0.63;0.63;;;19.70;99.90;;;;;;5070817;28;20130;-78
2022/06/09 06:54:57;;;;;;;0.93;0.60;;;19.70;99.90;;;;;;5086731;28;20294;-77
2022/06/09 06:57:22;;;;;;;0.82;0.70;;;19.80;99.90;;;;;;5075970;28;20245;-76
2022/06/09 06:59:48;;;;;;;0.40;0.40;;;20.00;99.90;;;;;;5091265;28;20016;-77
2022/06/09 07:02:13;;;;;;;2.38;0.60;;;20.10;99.90;;;;;;5084445;28;20122;-82
2022/06/09 07:04:39;;;;;;;0.63;0.63;;;19.90;99.90;;;;;;5086963;28;20031;-77
2022/06/09 07:07:04;;;;;;;0.50;0.50;;;19.90;99.90;;;;;;5091942;28;20024;-76
2022/06/09 07:09:30;;;;;;;0.60;0.60;;;19.90;99.90;;;;;;5088913;28;20031;-77
2022/06/09 07:11:56;;;;;;;0.82;0.77;;;19.90;99.90;;;;;;5080371;28;20476;-76
2022/06/09 07:14:21;;;;;;;0.52;0.38;;;19.90;99.90;;;;;;5080004;28;20039;-75
2022/06/09 07:16:47;;;;;;;0.65;0.55;;;20.00;99.90;;;;;;5085747;28;20031;-76
2022/06/09 07:19:16;;;;;;;0.43;0.40;;;20.00;99.90;;;;;;5085423;28;20032;-73
2022/06/09 07:21:44;;;;;;;0.60;0.60;;;20.10;99.90;;;;;;5087264;28;20044;-77
2022/06/09 07:24:10;;;;;;;2.83;0.70;;;19.80;99.90;;;;;;5085944;28;20039;-75
2022/06/09 07:26:35;;;;;;;0.40;0.40;;;19.70;99.90;;;;;;5087110;28;20020;-76
2022/06/09 07:29:01;;;;;;;0.43;0.43;;;19.60;99.90;;;;;;5081059;28;20483;-76
2022/06/09 07:31:26;;;;;;;0.50;0.50;;;19.40;99.90;;;;;;5088634;28;20411;-76
2022/06/09 07:33:52;;;;;;;0.63;0.50;;;19.30;99.90;;;;;;5069532;28;20032;-76
2022/06/09 07:36:20;;;;;;;0.40;0.40;;;19.20;99.90;;;;;;5079078;28;20442;-79
2022/06/09 07:38:46;;;;;;;4.60;1.60;;;19.00;99.90;;;;;;5088594;28;20093;-78
2022/06/09 07:41:13;;;;;;;1.55;0.68;;;18.80;99.90;;;;;;5088642;28;20024;-78
2022/06/09 07:43:39;;;;;;;0.68;0.52;;;18.80;99.90;;;;;;5086886;28;20032;-78
2022/06/09 07:46:04;;;;;;;0.85;0.75;;;18.70;99.90;;;;;;5085940;28;20085;-76
2022/06/09 07:48:30;;;;;;;0.75;0.60;;;18.60;99.90;;;;;;5085609;28;20037;-76
2022/06/09 07:50:56;;;;;;;2.08;0.73;;;18.70;99.90;;;;;;5082480;28;20103;-76
2022/06/09 07:53:23;;;;;;;3.30;0.60;;;18.60;99.90;;;;;;5077492;28;20136;-78
2022/06/09 07:55:49;;;;;;;0.50;0.50;;;18.50;99.90;;;;;;5085538;28;20063;-76
2022/06/09 07:58:17;;;;;;;0.75;0.70;;;18.50;99.90;;;;;;5081270;28;20493;-78
2022/06/09 08:00:42;;;;;;;1.38;0.80;;;18.70;99.90;;;;;;5076585;28;20437;-75
2022/06/09 08:03:09;;;;;;;0.50;0.50;;;18.70;99.90;;;;;;5080405;28;20020;-76
2022/06/09 08:05:35;;;;;;;0.60;0.60;;;18.70;99.90;;;;;;5088079;28;20046;-78
2022/06/09 08:08:00;;;;;;;1.67;0.90;;;18.70;99.90;;;;;;5079932;28;20109;-76
2022/06/09 08:10:28;;;;;;;0.60;0.57;;;18.70;99.90;;;;;;5081362;28;20028;-76
2022/06/09 08:12:57;;;;;;;1.17;0.65;;;18.70;99.90;;;;;;5084833;28;20107;-76
2022/06/09 08:15:24;;;;;;;1.08;0.50;;;18.70;99.90;;;;;;5078233;28;20036;-75
2022/06/09 08:17:55;;;;;;;0.50;0.50;;;18.70;99.90;;;;;;5073253;28;20029;-76
2022/06/09 08:20:22;;;;;;;1.08;0.85;;;18.80;99.90;;;;;;5068831;28;20028;-75
2022/06/09 08:22:47;;;;;;;1.42;0.80;;;18.80;99.90;;;;;;5083396;28;20027;-75
2022/06/09 08:25:16;;;;;;;0.73;0.73;;;18.80;99.90;;;;;;5080808;28;20029;-76
2022/06/09 08:27:42;;;;;;;1.13;0.95;;;18.90;99.90;;;;;;5081206;28;20470;-73
2022/06/09 08:30:11;;;;;;;1.70;1.05;;;18.90;99.90;;;;;;5081437;28;20043;-74
2022/06/09 08:32:37;;;;;;;0.55;0.55;;;18.80;99.90;;;;;;5078555;28;20013;-74
2022/06/09 08:35:04;;;;;;;1.45;1.23;;;18.50;99.90;;;;;;5084425;28;20036;-73
2022/06/09 08:37:30;;;;;;;0.55;0.55;;;18.50;99.90;;;;;;5073897;28;20077;-75
2022/06/09 08:39:55;;;;;;;0.75;0.75;;;18.50;99.90;;;;;;5076547;28;20501;-74
2022/06/09 08:42:24;;;;;;;0.63;0.63;;;18.50;99.90;;;;;;5077725;28;20036;-74
2022/06/09 08:45:02;;;;;;;6.82;0.90;;;18.50;99.90;;;;;;5079371;28;20103;-74
2022/06/09 08:47:39;;;;;;;0.80;0.80;;;18.40;99.90;;;;;;5077171;28;20028;-74
2022/06/09 08:50:13;;;;;;;0.90;0.90;;;18.50;99.90;;;;;;5079691;28;20116;-74
2022/06/09 08:52:53;;;;;;;0.80;0.80;;;18.50;99.90;;;;;;5073996;28;20020;-74
2022/06/09 08:55:32;;;;;;;3.97;1.08;;;18.40;99.90;;;;;;5085663;28;20728;-75
2022/06/09 08:58:17;;;;;;;0.80;0.80;;;18.30;99.90;;;;;;5078160;28;20065;-74
2022/06/09 09:00:48;;;;;;;1.33;1.23;;;18.30;99.90;;;;;;5076385;28;20032;-75
2022/06/09 09:03:22;;;;;;;1.05;0.93;;;18.40;99.90;;;;;;5080967;28;20073;-75
2022/06/09 09:05:59;;;;;;;2.65;0.90;;;18.40;99.90;;;;;;5083962;28;20055;-74
2022/06/09 09:08:24;;;;;;;0.55;0.55;;;18.50;99.90;;;;;;5084335;28;20040;-74
2022/06/09 09:11:02;;;;;;;2.40;1.02;;;18.50;99.90;;;;;;5083489;28;20025;-74
2022/06/09 09:13:41;;;;;;;0.90;0.90;;;18.70;99.90;;;;;;5083128;28;20035;-75
2022/06/09 09:16:31;;;;;;;0.70;0.70;;;18.80;99.90;;;;;;5078865;28;20047;-75
2022/06/09 09:19:19;;;;;;;1.30;1.10;;;19.10;99.90;;;;;;5080192;28;20517;-76
2022/06/09 09:22:10;;;;;;;0.65;0.65;;;19.30;99.90;;;;;;5080941;28;20665;-75
2022/06/09 09:24:58;;;;;;;1.33;1.10;;;19.60;99.90;;;;;;5083821;28;20028;-75
2022/06/09 09:28:08;;;;;;;2.13;1.13;;;19.70;99.90;;;;;;5082889;28;20043;-76
2022/06/09 09:30:40;;;;;;;1.33;0.93;;;20.00;99.90;;;;;;4999901;28;20026;-77
2022/06/09 09:33:15;;;;;;;1.20;1.10;;;20.10;99.90;;;;;;5065860;28;20032;-75
2022/06/09 09:35:43;;;;;;;0.80;0.80;;;20.10;99.90;;;;;;5081249;28;20032;-76
2022/06/09 09:38:14;;;;;;;0.90;0.90;;;20.10;99.90;;;;;;5075118;28;20024;-75
2022/06/09 09:40:43;;;;;;;1.07;0.83;;;19.90;99.90;;;;;;5078302;28;20032;-76
2022/06/09 09:43:25;;;;;;;1.50;1.30;;;20.10;99.90;;;;;;5082335;28;20060;-75
2022/06/09 09:45:54;;;;;;;1.42;0.93;;;20.00;99.90;;;;;;5077344;28;20027;-74
2022/06/09 09:48:19;;;;;;;0.95;0.85;;;20.20;99.90;;;;;;5079706;28;20519;-73
2022/06/09 09:51:10;;;;;;;3.30;1.30;;;20.30;99.90;;;;;;5084407;28;20031;-75
2022/06/09 09:53:52;;;;;;;1.97;1.17;;;19.90;99.90;;;;;;5076035;28;20048;-75
2022/06/09 09:56:17;;;;;;;1.67;1.13;;;20.00;99.90;;;;;;5074948;28;20674;-75
2022/06/09 09:58:49;;;;;;;1.17;0.73;;;20.20;99.90;;;;;;5078818;28;20081;-75
2022/06/09 10:01:14;;;;;;;;;;;20.10;99.90;;;;;;5070962;28;20182;-75
2022/06/09 10:09:32;;;;;;;0.70;0.70;;;20.50;99.90;;;;;;5080372;28;20088;-75
2022/06/09 10:12:06;;;;;;;2.28;1.10;;;20.40;99.90;;;;;;5087326;28;20043;-75
2022/06/09 10:14:50;;;;;;;2.35;1.20;;;20.30;99.90;;;;;;5079951;28;20066;-74
2022/06/09 10:17:48;;;;;;;1.17;1.08;;;20.20;99.90;;;;;;5079171;28;20048;-74
2022/06/09 10:20:14;;;;;;;0.70;0.70;;;20.30;99.90;;;;;;5041091;28;20043;-73
2022/06/09 10:22:42;;;;;;;1.70;1.10;;;20.40;99.90;;;;;;5083942;28;20097;-76
2022/06/09 10:25:16;;;;;;;1.75;1.13;;;20.40;99.90;;;;;;5087053;28;20035;-74
2022/06/09 10:27:46;;;;;;;0.85;0.85;;;20.40;99.90;;;;;;5082630;28;20028;-73
2022/06/09 10:30:17;;;;;;;1.35;0.88;;;20.50;99.90;;;;;;5089177;28;20028;-73
2022/06/09 10:32:52;;;;;;;1.02;0.90;;;20.60;99.90;;;;;;5083507;28;20082;-73
2022/06/09 10:35:57;;;;;;;2.05;1.20;;;20.70;99.60;;;;;;5087434;28;20039;-72
2022/06/09 10:38:32;;;;;;;0.77;0.77;;;21.00;97.70;;;;;;5083152;28;20031;-72
2022/06/09 10:41:02;;;;;;;3.30;1.25;;;20.80;97.20;;;;;;5083442;28;20020;-73
2022/06/09 10:43:32;;;;;;;1.13;1.00;;;20.60;97.80;;;;;;5076825;28;20032;-73
2022/06/09 10:46:23;;;;;;;0.98;0.93;;;20.50;96.70;;;;;;5084837;28;20474;-73
2022/06/09 10:55:14;;;;;;;0.98;0.88;;;20.40;96.80;;;;;;5089544;28;21108;-72
2022/06/09 10:58:21;;;;;;;1.67;0.93;;;20.10;98.00;;;;;;5083108;28;21298;-72
2022/06/09 11:00:49;;;;;;;1.23;1.05;;;20.40;99.40;;;;;;5073265;28;20033;-73
2022/06/09 11:03:27;;;;;;;1.25;1.15;;;20.50;97.50;;;;;;5060619;28;20114;-72
2022/06/09 11:06:23;;;;;;;1.42;1.30;;;20.60;97.40;;;;;;5078739;28;20059;-74
2022/06/09 11:08:58;;;;;;;1.15;1.05;;;20.60;97.50;;;;;;5081582;28;20560;-73
2022/06/09 11:11:47;;;;;;;1.25;1.05;;;20.70;97.60;;;;;;5077313;28;20052;-73
2022/06/09 11:14:50;;;;;;;1.10;1.00;;;20.80;98.20;;;;;;5082286;28;20559;-79
2022/06/09 11:17:27;;;;;;;1.40;1.05;;;21.10;98.20;;;;;;5075119;28;20039;-81
2022/06/09 11:19:58;;;;;;;1.17;1.08;;;21.20;96.30;;;;;;5078949;28;20566;-81
2022/06/09 11:22:57;;;;;;;1.80;1.20;;;21.20;97.40;;;;;;5084813;28;20047;-78
2022/06/09 11:25:48;;;;;;;2.33;1.50;;;21.40;97.70;;;;;;5078453;28;20026;-78
2022/06/09 11:28:23;;;;;;;;;;;21.30;97.20;;;;;;5084705;28;20078;-77
2022/06/09 11:31:12;;;;;;;2.03;1.42;;;21.30;95.90;;;;;;5084395;28;19923;-76
2022/06/09 11:34:07;;;;;;;2.22;1.30;;;21.10;94.80;;;;;;5083377;28;20024;-76
2022/06/09 11:36:57;;;;;;;2.33;1.45;;;20.90;95.90;;;;;;5078702;28;20029;-78
2022/06/09 11:40:00;;;;;;;4.63;1.30;;;20.80;96.00;;;;;;5083651;28;20028;-77
2022/06/09 11:42:46;;;;;;;2.10;1.42;;;20.70;96.00;;;;;;5086176;28;20722;-78
2022/06/09 11:45:33;;;;;;;5.45;2.20;;;20.40;97.80;;;;;;5086775;28;20039;-77
2022/06/09 11:48:02;;;;;;;2.58;1.63;;;20.50;97.60;;;;;;5080459;28;20651;-77
2022/06/09 11:50:35;;;;;;;2.45;1.20;;;20.60;96.70;;;;;;5085882;28;20020;-78
2022/06/09 11:53:02;;;;;;;1.90;1.58;;;20.70;97.40;;;;;;5083779;28;20028;-81
2022/06/09 11:58:36;;;;;;;2.17;1.40;;;20.90;98.00;;;;;;5080311;28;20046;-79
2022/06/09 12:01:32;;;;;;;1.17;1.08;;;21.00;96.10;;;;;;5080015;28;20032;-79
2022/06/09 12:04:12;;;;;;;1.92;1.50;;;21.00;95.80;;;;;;5080721;28;20094;-79
2022/06/09 12:07:16;;;;;;;1.73;1.10;;;20.90;94.50;;;;;;5082312;28;20044;-79
2022/06/09 12:09:52;;;;;;;1.10;1.00;;;20.90;94.10;;;;;;5088100;28;20027;-78
2022/06/09 12:12:32;;;;;;;1.13;1.02;;;20.70;94.30;;;;;;5084681;28;20050;-78
2022/06/09 12:15:20;;;;;;;1.25;1.08;;;20.90;94.50;;;;;;5086099;28;20064;-78
2022/06/09 12:18:12;;;;;;;1.25;1.08;;;21.00;94.90;;;;;;5080994;28;20135;-78
2022/06/09 12:20:58;;;;;;;;;;;21.10;93.50;;;;;;5054054;28;20040;-78
2022/06/09 12:23:29;;;;;;;2.83;1.27;;;20.90;93.80;;;;;;5080981;28;19916;-84
2022/06/09 12:26:10;;;;;;;1.08;0.98;;;21.00;94.40;;;;;;5085417;28;20016;-81
2022/06/09 12:28:54;;;;;;;2.33;1.40;;;21.20;94.10;;;;;;5088145;28;20516;-80
2022/06/09 12:31:24;;;;;;;0.90;0.90;;;21.30;95.10;;;;;;5081208;28;20153;-84
2022/06/09 12:34:00;;;;;;;1.53;1.33;;;21.60;94.70;;;;;;5083215;28;20535;-79
2022/06/09 12:36:42;;;;;;;1.52;1.40;;;21.50;94.60;;;;;;5077008;28;20016;-80
2022/06/09 12:39:29;;;;;;;1.13;0.95;;;21.80;94.30;;;;;;5078636;28;20470;-79
2022/06/09 12:42:04;;;;;;;2.53;1.63;;;22.00;95.60;;;;;;5078360;28;20029;-82
2022/06/09 12:44:42;;;;;;;1.83;1.42;;;22.10;94.50;;;;;;5083425;28;20059;-79
2022/06/09 12:47:21;;;;;;;2.13;1.35;;;22.30;94.50;;;;;;5080021;28;20466;-78
2022/06/09 12:49:50;;;;;;;2.13;1.48;;;22.30;93.50;;;;;;5084428;28;20413;-78
2022/06/09 12:52:42;;;;;;;1.77;1.30;;;22.30;94.10;;;;;;5086814;28;20039;-79
2022/06/09 12:55:17;;;;;;;1.58;1.30;;;22.00;93.90;;;;;;5085216;28;20048;-79
2022/06/09 12:57:59;;;;;;;2.45;1.83;;;21.70;93.70;;;;;;5078345;28;20086;-78
2022/06/09 13:00:34;;;;;;;1.30;1.05;;;21.30;94.30;;;;;;5079799;28;20030;-81
2022/06/09 13:03:00;;;;;;;2.35;1.33;;;20.90;95.10;;;;;;5078378;28;20107;-79
2022/06/09 13:05:34;;;;;;;1.67;1.08;;;20.60;97.40;;;;;;5089640;28;20119;-79
2022/06/09 13:08:05;;;;;;;2.08;1.50;;;20.30;99.90;;;;;;5081702;28;20027;-78
2022/06/09 13:10:38;;;;;;;2.05;1.17;;;20.10;99.90;;;;;;5084870;28;20031;-85
2022/06/09 13:13:16;;;;;;;3.63;1.92;;;19.90;99.90;;;;;;5085286;28;20550;-87
2022/06/09 13:16:02;;;;;;;1.85;1.40;;;19.90;99.90;;;;;;5086402;28;20106;-87
2022/06/09 13:18:35;;;;;;;2.15;1.50;;;19.90;99.90;;;;;;5078537;28;20074;-85
2022/06/09 13:21:15;;;;;;;3.47;1.70;;;20.00;99.90;;;;;;5081733;28;20053;-85
2022/06/09 13:23:44;;;;;;;1.73;1.30;;;19.90;99.90;;;;;;5087137;28;20054;-82
2022/06/09 13:26:14;;;;;;;2.33;1.55;;;20.00;99.90;;;;;;5075556;28;20024;-86
2022/06/09 13:28:47;;;;;;;2.10;1.58;;;20.10;99.90;;;;;;5088376;28;20063;-82
2022/06/09 13:31:24;;;;;;;2.03;1.75;;;20.30;99.90;;;;;;5080272;28;20551;-80
2022/06/09 13:34:09;;;;;;;1.98;1.15;;;20.40;99.90;;;;;;5080237;28;20391;-81
2022/06/09 13:37:04;;;;;;;1.85;1.38;;;20.60;99.90;;;;;;5061543;28;20040;-81
2022/06/09 13:39:32;;;;;;;1.10;1.00;;;20.70;99.90;;;;;;5078613;28;20071;-76